Time;durP1;ratioP1;P1;durP2;ratioP2;P2;SDS_P1;SDS_P2;PMS_P1;PMS_P2;Temp;Humidity;BMP_temperature;BMP_pressure;BME280_temperature;BME280_humidity;BME280_pressure;Samples;Min_cycle;Max_cycle;Signal;HPM_P1;HPM_P2
2021/01/11 00:00:59;;;;;;;22.60;14.83;;;;;;;-144.99;100.00;52521.47;5066863;28;20750;-78
2021/01/11 00:03:25;;;;;;;18.33;11.30;;;;;;;-144.99;100.00;52574.47;4700653;28;10000434;-77
2021/01/11 00:05:52;;;;;;;16.17;11.73;;;;;;;-144.99;100.00;52574.47;5047163;28;20657;-77
2021/01/11 00:08:18;;;;;;;15.53;12.57;;;;;;;-144.99;100.00;52545.94;5047963;28;20624;-78
2021/01/11 00:10:44;;;;;;;16.20;11.27;;;;;;;-144.99;100.00;52582.63;5046968;28;20786;-75
2021/01/11 00:13:10;;;;;;;17.23;12.77;;;;;;;-144.99;100.00;52533.69;5051623;28;20739;-75
2021/01/11 00:15:36;;;;;;;20.40;13.73;;;;;;;-144.99;100.00;52562.25;5047424;28;20623;-74
2021/01/11 00:18:04;;;;;;;19.20;13.33;;;;;;;-144.99;100.00;52550.00;5048038;28;21603;-76
2021/01/11 00:20:31;;;;;;;20.40;14.90;;;;;;;-144.99;100.00;52582.63;5048098;28;21037;-77
2021/01/11 00:22:59;;;;;;;19.43;13.90;;;;;;;-144.99;100.00;52598.94;5049881;28;20662;-77
2021/01/11 00:25:25;;;;;;;22.17;15.00;;;;;;;-144.99;100.00;52578.53;5049792;28;20636;-76
2021/01/11 00:27:51;;;;;;;19.10;14.00;;;;;;;-144.99;100.00;52592.81;5053612;28;20619;-76
2021/01/11 00:30:19;;;;;;;19.90;13.50;;;;;;;-144.99;100.00;52533.69;5063171;28;20634;-76
2021/01/11 00:32:45;;;;;;;20.27;15.60;;;;;;;-144.99;100.00;52558.16;5048656;28;20651;-75
2021/01/11 00:35:11;;;;;;;19.37;13.80;;;;;;;-144.99;100.00;52550.00;5052274;28;20663;-77
2021/01/11 00:37:37;;;;;;;19.70;14.37;;;;;;;-144.99;100.00;52550.00;5074484;28;20657;-77
2021/01/11 00:40:06;;;;;;;20.43;15.17;;;;;;;-144.99;100.00;52513.31;5068105;28;20622;-76
2021/01/11 00:42:34;;;;;;;19.17;13.93;;;;;;;-144.99;100.00;52550.00;5049808;28;21260;-77
2021/01/11 00:45:01;;;;;;;24.63;16.10;;;;;;;-144.99;100.00;52574.47;5050383;28;20628;-77
2021/01/11 00:47:27;;;;;;;19.93;14.67;;;;;;;-144.99;100.00;52541.84;5092329;22;20687;-74
2021/01/11 00:49:53;;;;;;;22.73;16.00;;;;;;;-144.99;100.00;52578.53;5070321;28;20642;-75
2021/01/11 00:52:19;;;;;;;23.67;18.87;;;;;;;-144.99;100.00;52578.53;5073106;28;20721;-74
2021/01/11 00:54:45;;;;;;;24.13;15.53;;;;;;;-144.99;100.00;52529.63;5073090;28;20657;-75
2021/01/11 00:57:12;;;;;;;23.00;16.30;;;;;;;-144.99;100.00;52550.00;5072548;28;20651;-75
2021/01/11 00:59:38;;;;;;;19.00;15.27;;;;;;;-144.99;100.00;52550.00;5068072;28;21181;-77
2021/01/11 01:02:05;;;;;;;21.60;15.20;;;;;;;-144.99;100.00;52570.38;5072689;28;21337;-75
2021/01/11 01:04:31;;;;;;;22.30;16.73;;;;;;;-144.99;100.00;52545.94;5070511;28;20726;-76
2021/01/11 01:07:01;;;;;;;18.80;14.90;;;;;;;-144.99;100.00;52582.63;5072244;28;20723;-75
2021/01/11 01:09:27;;;;;;;22.40;16.50;;;;;;;-144.99;100.00;52570.38;5072055;28;20619;-74
2021/01/11 01:11:53;;;;;;;23.20;14.20;;;;;;;-144.99;100.00;52558.16;5073274;28;21057;-75
2021/01/11 01:14:20;;;;;;;20.57;14.97;;;;;;;-144.99;100.00;52578.53;5056516;28;20670;-73
2021/01/11 01:16:47;;;;;;;18.83;13.87;;;;;;;-144.99;100.00;52566.31;5052272;28;21049;-75
2021/01/11 01:19:13;;;;;;;18.50;13.20;;;;;;;-144.99;100.00;52554.09;5049262;28;21359;-73
2021/01/11 01:21:39;;;;;;;17.10;13.53;;;;;;;-144.99;100.00;52578.53;5051966;28;20710;-74
2021/01/11 01:24:06;;;;;;;15.07;10.87;;;;;;;-144.99;100.00;52594.84;5052456;28;20666;-74
2021/01/11 01:26:32;;;;;;;17.37;12.07;;;;;;;-144.99;100.00;52541.84;5051676;28;21257;-75
2021/01/11 01:29:01;;;;;;;18.57;13.20;;;;;;;-144.99;100.00;52570.38;5073448;28;21255;-74
2021/01/11 01:31:29;;;;;;;20.07;14.53;;;;;;;-144.99;100.00;52594.84;5069940;28;21260;-75
2021/01/11 01:33:55;;;;;;;17.97;14.30;;;;;;;-144.99;100.00;52611.16;5052654;28;20672;-76
2021/01/11 01:36:21;;;;;;;20.37;15.07;;;;;;;-144.99;100.00;52558.16;5061710;28;20690;-75
2021/01/11 01:38:48;;;;;;;24.77;14.97;;;;;;;-144.99;100.00;52598.94;5052209;28;20655;-74
2021/01/11 01:41:14;;;;;;;20.30;13.23;;;;;;;-144.99;100.00;52566.31;5058604;28;20733;-77
2021/01/11 01:43:40;;;;;;;18.70;14.97;;;;;;;-144.99;100.00;52539.81;5051690;28;20804;-76
2021/01/11 01:46:12;;;;;;;18.97;14.67;;;;;;;-144.99;100.00;52566.31;5050784;28;20762;-75
2021/01/11 01:48:39;;;;;;;20.23;16.63;;;;;;;-144.99;100.00;52558.16;5049904;28;20663;-76
2021/01/11 01:51:05;;;;;;;19.90;15.33;;;;;;;-144.99;100.00;52550.00;5050865;28;20620;-77
2021/01/11 01:53:31;;;;;;;17.40;14.47;;;;;;;-144.99;100.00;52590.78;5058341;28;20659;-74
2021/01/11 01:55:58;;;;;;;19.80;17.30;;;;;;;-144.99;100.00;52562.25;5057260;28;20682;-77
2021/01/11 01:58:24;;;;;;;19.53;14.07;;;;;;;-144.99;100.00;52590.78;5053945;28;20715;-76
2021/01/11 02:00:50;;;;;;;17.47;14.57;;;;;;;-144.99;100.00;52582.63;5071421;28;20713;-75
2021/01/11 02:03:17;;;;;;;19.97;14.00;;;;;;;-144.99;100.00;52603.00;5070445;28;20637;-75
2021/01/11 02:05:44;;;;;;;21.80;15.43;;;;;;;-144.99;100.00;52525.56;5071378;28;20653;-71
2021/01/11 02:08:17;;;;;;;14.70;12.00;;;;;;;-144.99;100.00;52570.38;5071831;28;20985;-74
2021/01/11 02:10:55;;;;;;;17.97;13.87;;;;;;;-144.99;100.00;52533.69;5071729;28;20606;-75
2021/01/11 02:13:47;;;;;;;16.43;13.20;;;;;;;-144.99;100.00;52554.09;5064854;28;20623;-76
2021/01/11 02:16:19;;;;;;;19.83;14.13;;;;;;;-144.99;100.00;52578.53;5064581;28;20687;-74
2021/01/11 02:18:53;;;;;;;19.23;12.90;;;;;;;-144.99;100.00;52594.84;5049428;28;20719;-72
2021/01/11 02:21:57;;;;;;;20.50;13.03;;;;;;;-144.99;100.00;52554.09;5051028;28;20652;-76
2021/01/11 02:24:51;;;;;;;19.10;14.80;;;;;;;-144.99;100.00;52562.25;5051574;28;20662;-74
2021/01/11 02:27:33;;;;;;;19.90;13.80;;;;;;;-144.99;100.00;52550.00;5070144;28;20678;-73
2021/01/11 02:30:09;;;;;;;18.73;12.90;;;;;;;-144.99;100.00;52578.53;5067441;28;20699;-76
2021/01/11 02:32:41;;;;;;;19.33;17.23;;;;;;;-144.99;100.00;52572.44;5052584;28;20658;-74
2021/01/11 02:35:10;;;;;;;18.57;15.00;;;;;;;-144.99;100.00;52541.84;5062672;28;20741;-74
2021/01/11 02:37:38;;;;;;;23.63;17.20;;;;;;;-144.99;100.00;52558.16;5063354;28;21128;-74
2021/01/11 02:40:06;;;;;;;22.83;15.37;;;;;;;-144.99;100.00;52570.38;5057449;28;21231;-74
2021/01/11 02:42:32;;;;;;;20.80;13.50;;;;;;;-144.99;100.00;52580.59;5051328;28;21400;-74
2021/01/11 02:44:58;;;;;;;21.57;14.77;;;;;;;-144.99;100.00;52582.63;5050799;28;20647;-74
2021/01/11 02:47:38;;;;;;;21.00;14.23;;;;;;;-144.99;100.00;52566.31;5050217;28;20667;-75
2021/01/11 02:50:07;;;;;;;25.70;16.67;;;;;;;-144.99;100.00;52513.31;5052089;28;20623;-75
2021/01/11 02:52:41;;;;;;;22.60;15.57;;;;;;;-144.99;100.00;52554.09;5060197;28;20631;-74
2021/01/11 02:55:13;;;;;;;24.83;16.60;;;;;;;-144.99;100.00;52554.09;5050945;28;20707;-76
2021/01/11 02:57:46;;;;;;;24.00;15.57;;;;;;;-144.99;100.00;52545.94;5050163;28;20713;-77
2021/01/11 03:00:14;;;;;;;21.00;15.90;;;;;;;-144.99;100.00;52574.47;5066703;28;20663;-77
2021/01/11 03:02:48;;;;;;;23.13;14.73;;;;;;;-144.99;100.00;52558.16;5069838;28;20672;-76
2021/01/11 03:05:16;;;;;;;19.83;15.13;;;;;;;-144.99;100.00;52541.84;5068674;28;20638;-75
2021/01/11 03:07:54;;;;;;;22.37;13.87;;;;;;;-144.99;100.00;52590.78;5069897;28;20765;-75
2021/01/11 03:10:20;;;;;;;23.53;15.60;;;;;;;-144.99;100.00;52576.50;5069852;28;20691;-76
2021/01/11 03:12:46;;;;;;;23.97;17.73;;;;;;;-144.99;100.00;52539.81;5070151;28;21059;-75
2021/01/11 03:15:14;;;;;;;23.20;18.03;;;;;;;-144.99;100.00;52533.69;5049820;28;20874;-73
2021/01/11 03:17:41;;;;;;;25.17;16.67;;;;;;;-144.99;100.00;52566.31;5049568;28;20656;-73
2021/01/11 03:20:09;;;;;;;27.63;17.13;;;;;;;-144.99;100.00;52588.75;5047423;28;20989;-74
2021/01/11 03:22:35;;;;;;;27.00;18.27;;;;;;;-144.99;100.00;52529.63;5050090;28;20754;-74
2021/01/11 03:25:01;;;;;;;22.60;17.03;;;;;;;-144.99;100.00;52533.69;5050300;28;20659;-74
2021/01/11 03:27:27;;;;;;;30.07;21.93;;;;;;;-144.99;100.00;52596.88;5052329;28;20666;-76
2021/01/11 03:29:53;;;;;;;27.77;20.77;;;;;;;-144.99;100.00;52545.94;5079199;28;20704;-74
2021/01/11 03:32:19;;;;;;;31.23;20.23;;;;;;;-144.99;100.00;52570.38;5055967;28;20647;-74
2021/01/11 03:34:46;;;;;;;30.67;20.30;;;;;;;-144.99;100.00;52570.38;5056951;28;20983;-74
2021/01/11 03:37:12;;;;;;;30.37;19.90;;;;;;;-144.99;100.00;52545.94;5052206;28;20679;-72
2021/01/11 03:39:38;;;;;;;26.23;17.87;;;;;;;-144.99;100.00;52582.63;5053691;28;20723;-74
2021/01/11 03:42:05;;;;;;;27.50;20.40;;;;;;;-144.99;100.00;52574.47;5052229;28;20838;-74
2021/01/11 03:44:34;;;;;;;25.20;18.17;;;;;;;-144.99;100.00;52537.78;5049267;28;20806;-74
2021/01/11 03:47:00;;;;;;;24.60;18.83;;;;;;;-144.99;100.00;52576.50;5048658;28;21221;-76
2021/01/11 03:49:26;;;;;;;29.80;20.13;;;;;;;-144.99;100.00;52574.47;5046717;28;20650;-76
2021/01/11 03:52:00;;;;;;;24.67;18.53;;;;;;;-144.99;100.00;52529.63;5049976;28;20651;-75
2021/01/11 03:54:26;;;;;;;27.83;18.13;;;;;;;-144.99;100.00;52525.56;5049843;28;20971;-75
2021/01/11 03:56:52;;;;;;;24.77;18.10;;;;;;;-144.99;100.00;52541.84;5048968;28;20751;-75
2021/01/11 03:59:18;;;;;;;29.33;20.27;;;;;;;-144.99;100.00;52562.25;5057871;28;20708;-75
2021/01/11 04:01:44;;;;;;;28.10;19.73;;;;;;;-144.99;100.00;52566.31;5062361;28;20660;-74
2021/01/11 04:04:10;;;;;;;27.47;21.27;;;;;;;-144.99;100.00;52600.97;5047152;28;20686;-74
2021/01/11 04:06:36;;;;;;;28.43;19.00;;;;;;;-144.99;100.00;52554.09;5048767;28;20709;-74
2021/01/11 04:09:04;;;;;;;29.97;20.53;;;;;;;-144.99;100.00;52570.38;5048486;28;20627;-73
2021/01/11 04:11:33;;;;;;;27.47;20.50;;;;;;;-144.99;100.00;52562.25;5049367;28;20714;-74
2021/01/11 04:13:59;;;;;;;28.23;18.33;;;;;;;-144.99;100.00;52554.09;5055389;28;20734;-75
2021/01/11 04:16:25;;;;;;;28.73;21.33;;;;;;;-144.99;100.00;52574.47;5048518;28;20687;-75
2021/01/11 04:18:52;;;;;;;29.27;22.17;;;;;;;-144.99;100.00;52570.38;5047322;28;21192;-73
2021/01/11 04:21:18;;;;;;;29.00;21.87;;;;;;;-144.99;100.00;52594.84;5049203;28;20718;-76
2021/01/11 04:23:44;;;;;;;29.33;22.00;;;;;;;-144.99;100.00;52541.84;5048528;28;20996;-76
2021/01/11 04:26:11;;;;;;;32.27;22.43;;;;;;;-144.99;100.00;52603.00;5057632;28;21243;-76
2021/01/11 04:28:37;;;;;;;34.50;25.73;;;;;;;-144.99;100.00;52570.38;5076789;28;20715;-76
2021/01/11 04:31:07;;;;;;;30.13;23.50;;;;;;;-144.99;100.00;52590.78;5068940;28;20659;-75
2021/01/11 04:33:33;;;;;;;38.70;25.67;;;;;;;-144.99;100.00;52545.94;5047249;28;21201;-75
2021/01/11 04:36:00;;;;;;;33.53;23.50;;;;;;;-144.99;100.00;52541.84;5061291;28;20722;-75
2021/01/11 04:38:26;;;;;;;33.60;23.83;;;;;;;-144.99;100.00;52570.38;5048548;28;21244;-76
2021/01/11 04:40:52;;;;;;;35.73;24.73;;;;;;;-144.99;100.00;52574.47;5063014;28;20704;-76
2021/01/11 04:43:19;;;;;;;39.27;28.23;;;;;;;-144.99;100.00;52562.25;5052926;28;20660;-76
2021/01/11 04:45:46;;;;;;;35.70;23.70;;;;;;;-144.99;100.00;52562.25;5049187;28;20988;-78
2021/01/11 04:48:12;;;;;;;41.40;25.00;;;;;;;-144.99;100.00;52517.41;5047572;28;20715;-77
2021/01/11 04:50:40;;;;;;;38.37;27.43;;;;;;;-144.99;100.00;52558.16;5048205;28;20620;-74
2021/01/11 04:53:08;;;;;;;32.33;22.17;;;;;;;-144.99;100.00;52541.84;5049324;28;20715;-74
2021/01/11 04:55:36;;;;;;;38.30;26.50;;;;;;;-144.99;100.00;52574.47;5048543;28;21036;-74
2021/01/11 04:58:07;;;;;;;43.13;29.63;;;;;;;-144.99;100.00;52564.28;5048116;28;20663;-73
2021/01/11 05:00:35;;;;;;;37.37;25.73;;;;;;;-144.99;100.00;52519.44;5057790;28;20615;-74
2021/01/11 05:03:04;;;;;;;37.73;25.50;;;;;;;-144.99;100.00;52568.34;5064119;28;21252;-74
2021/01/11 05:05:32;;;;;;;43.07;28.30;;;;;;;-144.99;100.00;52566.31;5047137;28;20689;-73
2021/01/11 05:07:58;;;;;;;39.10;28.73;;;;;;;-144.99;100.00;52552.03;5048076;28;21032;-74
2021/01/11 05:10:26;;;;;;;38.70;27.30;;;;;;;-144.99;100.00;52558.16;5048641;28;20778;-76
2021/01/11 05:12:57;;;;;;;36.50;25.10;;;;;;;-144.99;100.00;52603.00;5057355;28;20650;-76
2021/01/11 05:15:25;;;;;;;33.67;26.13;;;;;;;-144.99;100.00;52545.94;5048163;28;20655;-76
2021/01/11 05:17:54;;;;;;;39.17;27.90;;;;;;;-144.99;100.00;52570.38;5046589;28;20733;-75
2021/01/11 05:20:26;;;;;;;37.67;22.80;;;;;;;-144.99;100.00;52598.94;5047035;28;21192;-77
2021/01/11 05:22:56;;;;;;;36.33;27.13;;;;;;;-144.99;100.00;52541.84;5055613;28;20655;-75
2021/01/11 05:25:25;;;;;;;34.70;25.07;;;;;;;-144.99;100.00;52594.84;5068697;28;20662;-75
2021/01/11 05:28:10;;;;;;;42.77;26.53;;;;;;;-144.99;100.00;52550.00;5071461;28;20654;-75
2021/01/11 05:30:37;;;;;;;37.57;23.73;;;;;;;-144.99;100.00;52570.38;5073711;28;20622;-74
2021/01/11 05:33:06;;;;;;;35.97;24.43;;;;;;;-144.99;100.00;52580.59;5048204;28;20623;-75
2021/01/11 05:35:33;;;;;;;36.77;27.73;;;;;;;-144.99;100.00;52570.38;5064048;28;20642;-74
2021/01/11 05:37:59;;;;;;;35.97;23.97;;;;;;;-144.99;100.00;52521.47;5051677;28;20751;-74
2021/01/11 05:40:27;;;;;;;32.30;24.90;;;;;;;-144.99;100.00;52543.91;5058685;28;20676;-74
2021/01/11 05:42:55;;;;;;;33.37;21.87;;;;;;;-144.99;100.00;52578.53;5051251;28;20671;-74
2021/01/11 05:45:25;;;;;;;38.97;25.40;;;;;;;-144.99;100.00;52564.28;5051463;28;20623;-75
2021/01/11 05:48:06;;;;;;;37.60;26.60;;;;;;;-144.99;100.00;52580.59;5049750;28;20671;-74
2021/01/11 05:50:35;;;;;;;36.87;24.33;;;;;;;-144.99;100.00;52527.59;5050664;28;20722;-75
2021/01/11 05:53:01;;;;;;;36.80;22.90;;;;;;;-144.99;100.00;52578.53;5051703;28;20655;-74
2021/01/11 05:55:29;;;;;;;33.40;25.03;;;;;;;-144.99;100.00;52550.00;5051636;28;20734;-74
2021/01/11 05:57:57;;;;;;;36.00;23.67;;;;;;;-144.99;100.00;52582.63;5051672;28;20950;-74
2021/01/11 06:00:24;;;;;;;30.23;21.40;;;;;;;-144.99;100.00;52598.94;5061255;28;21252;-74
2021/01/11 06:02:50;;;;;;;36.30;24.37;;;;;;;-144.99;100.00;52574.47;5050301;28;20667;-73
2021/01/11 06:05:18;;;;;;;36.13;23.10;;;;;;;-144.99;100.00;52537.78;5050146;28;20620;-72
2021/01/11 06:07:45;;;;;;;30.93;20.53;;;;;;;-144.99;100.00;52529.63;5050924;28;20670;-72
2021/01/11 06:10:13;;;;;;;32.33;20.73;;;;;;;-144.99;100.00;52582.63;5051214;28;20722;-73
2021/01/11 06:12:41;;;;;;;31.83;21.80;;;;;;;-144.99;100.00;52574.47;5068610;28;20712;-72
2021/01/11 06:15:09;;;;;;;28.77;19.83;;;;;;;-144.99;100.00;52562.25;5051029;28;20631;-75
2021/01/11 06:17:36;;;;;;;25.43;20.17;;;;;;;-144.99;100.00;52580.59;5049786;28;20667;-75
2021/01/11 06:20:03;;;;;;;26.30;20.50;;;;;;;-144.99;100.00;52550.00;5048995;28;21278;-76
2021/01/11 06:23:02;;;;;;;29.00;19.83;;;;;;;-144.99;100.00;52543.91;5050403;28;20650;-75
2021/01/11 06:25:36;;;;;;;25.60;18.33;;;;;;;-144.99;100.00;52564.28;5051497;28;20711;-77
2021/01/11 06:28:04;;;;;;;29.10;18.03;;;;;;;-144.99;100.00;52570.38;5063927;28;20733;-77
2021/01/11 06:30:38;;;;;;;23.77;16.40;;;;;;;-144.99;100.00;52562.25;5072603;28;20654;-77
2021/01/11 06:33:06;;;;;;;27.07;18.40;;;;;;;-144.99;100.00;52570.38;5060464;28;20632;-79
2021/01/11 06:35:33;;;;;;;23.13;18.60;;;;;;;-144.99;100.00;52545.94;5062731;28;20635;-77
2021/01/11 06:38:20;;;;;;;24.90;16.97;;;;;;;-144.99;100.00;52566.31;5050295;28;20698;-79
2021/01/11 06:40:48;;;;;;;19.53;15.10;;;;;;;-144.99;100.00;52570.38;5058076;28;21025;-77
2021/01/11 06:43:16;;;;;;;22.73;17.93;;;;;;;-144.99;100.00;52537.78;5050073;28;20695;-76
2021/01/11 06:45:44;;;;;;;20.47;15.93;;;;;;;-144.99;100.00;52607.09;5050453;28;20739;-75
2021/01/11 06:48:15;;;;;;;18.80;14.93;;;;;;;-144.99;100.00;52590.78;5080358;22;20769;-77
2021/01/11 06:50:43;;;;;;;20.27;14.03;;;;;;;-144.99;100.00;52568.34;5052434;28;21181;-76
2021/01/11 06:53:11;;;;;;;18.77;13.63;;;;;;;-144.99;100.00;52533.69;5052541;28;20638;-76
2021/01/11 06:55:37;;;;;;;17.33;13.27;;;;;;;-144.99;100.00;52570.38;5053108;28;20628;-77
2021/01/11 06:58:03;;;;;;;16.73;13.13;;;;;;;-144.99;100.00;52541.84;5052590;28;20682;-76
2021/01/11 07:00:34;;;;;;;19.47;13.40;;;;;;;-144.99;100.00;52550.00;5041490;28;20722;-75
2021/01/11 07:03:02;;;;;;;15.93;11.37;;;;;;;-144.99;100.00;52562.25;5050090;28;21232;-76
2021/01/11 07:05:50;;;;;;;15.20;11.73;;;;;;;-144.99;100.00;52554.09;5049624;28;20655;-78
2021/01/11 07:08:22;;;;;;;15.80;12.07;;;;;;;-144.99;100.00;52505.16;5026127;28;20644;-78
2021/01/11 07:11:02;;;;;;;14.03;11.17;;;;;;;-144.99;100.00;52590.78;5037462;28;20826;-77
2021/01/11 07:13:29;;;;;;;15.20;11.90;;;;;;;-144.99;100.00;52603.00;5041235;28;20634;-78
2021/01/11 07:16:16;;;;;;;15.47;12.50;;;;;;;-144.99;100.00;52574.47;5049232;28;20720;-78
2021/01/11 07:18:53;;;;;;;16.50;12.50;;;;;;;-144.99;100.00;52558.16;5030362;28;20671;-78
2021/01/11 07:21:23;;;;;;;14.73;11.27;;;;;;;-144.99;100.00;52596.88;5040281;28;20638;-76
2021/01/11 07:23:51;;;;;;;14.43;11.73;;;;;;;-144.99;100.00;52582.63;5051585;28;20723;-76
2021/01/11 07:26:19;;;;;;;13.20;10.47;;;;;;;-144.99;100.00;52527.59;5051994;28;20658;-76
2021/01/11 07:28:57;;;;;;;16.63;11.43;;;;;;;-144.99;100.00;52562.25;5036884;28;20735;-74
2021/01/11 07:31:25;;;;;;;15.67;12.37;;;;;;;-144.99;100.00;52558.16;5037552;28;20722;-74
2021/01/11 07:34:01;;;;;;;12.90;10.10;;;;;;;-144.99;100.00;52570.38;5034365;28;20659;-75
2021/01/11 07:36:28;;;;;;;12.73;10.13;;;;;;;-144.99;100.00;52529.63;5031218;28;20671;-76
2021/01/11 07:39:17;;;;;;;15.70;11.37;;;;;;;-144.99;100.00;52533.69;5035709;28;21294;-76
2021/01/11 07:41:45;;;;;;;11.93;10.23;;;;;;;-144.99;100.00;52545.94;5046428;28;20699;-75
2021/01/11 07:44:19;;;;;;;12.33;10.33;;;;;;;-144.99;100.00;52578.53;5051306;28;20643;-77
2021/01/11 07:46:52;;;;;;;14.87;10.30;;;;;;;-144.99;100.00;52550.00;5035500;28;21194;-77
2021/01/11 07:49:18;;;;;;;11.83;9.40;;;;;;;-144.99;100.00;52576.50;5029109;28;20728;-76
2021/01/11 07:51:46;;;;;;;14.90;11.03;;;;;;;-144.99;100.00;52541.84;5036296;28;21070;-75
2021/01/11 07:54:16;;;;;;;12.43;9.77;;;;;;;-144.99;100.00;52562.25;5042680;28;20677;-75
2021/01/11 07:56:43;;;;;;;14.83;12.13;;;;;;;-144.99;100.00;52603.00;5031644;28;20619;-74
2021/01/11 07:59:10;;;;;;;14.20;10.83;;;;;;;-144.99;100.00;52588.75;5033160;28;21119;-75
2021/01/11 08:01:40;;;;;;;15.40;11.60;;;;;;;-144.99;100.00;52598.94;5045551;28;20649;-76
2021/01/11 08:04:07;;;;;;;18.87;13.37;;;;;;;-144.99;100.00;52505.16;5042239;28;20662;-77
2021/01/11 08:06:55;;;;;;;14.60;12.20;;;;;;;-144.99;100.00;52562.25;5050951;28;20628;-76
2021/01/11 08:09:29;;;;;;;16.40;12.23;;;;;;;-144.99;100.00;52545.94;5034343;28;21185;-76
2021/01/11 08:12:07;;;;;;;17.03;11.67;;;;;;;-144.99;100.00;52545.94;5041134;28;20626;-75
2021/01/11 08:14:33;;;;;;;15.87;12.40;;;;;;;-144.99;100.00;52554.09;5049759;28;20619;-77
2021/01/11 08:17:00;;;;;;;14.57;11.57;;;;;;;-144.99;100.00;52603.00;5050805;28;20631;-76
2021/01/11 08:19:26;;;;;;;15.13;12.43;;;;;;;-144.99;100.00;52582.63;5048363;28;20925;-76
2021/01/11 08:22:00;;;;;;;14.17;12.33;;;;;;;-144.99;100.00;52543.91;5051416;28;21053;-76
2021/01/11 08:24:28;;;;;;;17.20;14.70;;;;;;;-144.99;100.00;52537.78;5050622;28;20639;-76
2021/01/11 08:27:06;;;;;;;15.47;13.87;;;;;;;-144.99;100.00;52554.09;5051134;28;20624;-75
2021/01/11 08:29:37;;;;;;;19.03;14.03;;;;;;;-144.99;100.00;52586.69;5029916;28;20783;-77
2021/01/11 08:32:05;;;;;;;13.77;9.77;;;;;;;-144.99;100.00;52521.47;5045622;28;20608;-77
2021/01/11 08:34:31;;;;;;;16.43;12.30;;;;;;;-144.99;100.00;52562.25;5043070;28;20682;-79
2021/01/11 08:36:59;;;;;;;18.00;12.73;;;;;;;-144.99;100.00;52521.47;5047609;28;20693;-80
2021/01/11 08:39:25;;;;;;;14.17;12.67;;;;;;;-144.99;100.00;52545.94;5051709;28;20952;-80
2021/01/11 08:41:54;;;;;;;15.23;12.27;;;;;;;-144.99;100.00;52594.84;5053365;28;21275;-77
2021/01/11 08:44:31;;;;;;;15.57;13.20;;;;;;;-144.99;100.00;52598.94;5052076;28;21297;-79
2021/01/11 08:47:03;;;;;;;21.90;15.00;;;;;;;-144.99;100.00;52537.78;5050757;28;20639;-78
2021/01/11 08:49:30;;;;;;;16.50;12.50;;;;;;;-144.99;100.00;52545.94;5050151;28;20643;-77
2021/01/11 08:52:12;;;;;;;17.77;12.87;;;;;;;-144.99;100.00;52580.59;5038336;28;20640;-77
2021/01/11 08:54:39;;;;;;;19.07;15.47;;;;;;;-144.99;100.00;52586.69;5050886;28;20632;-76
2021/01/11 08:57:12;;;;;;;20.23;16.57;;;;;;;-144.99;100.00;52541.84;5049529;28;21169;-77
2021/01/11 08:59:47;;;;;;;18.03;14.53;;;;;;;-144.99;100.00;52545.94;5039378;28;20643;-77
2021/01/11 09:02:25;;;;;;;19.23;13.40;;;;;;;-144.99;100.00;52598.94;5052026;28;20670;-77
2021/01/11 09:04:51;;;;;;;21.70;16.53;;;;;;;-144.99;100.00;52533.69;5051044;28;20635;-79
2021/01/11 09:07:26;;;;;;;17.70;14.63;;;;;;;-144.99;100.00;52572.44;5053635;28;20706;-78
2021/01/11 09:09:52;;;;;;;24.17;17.67;;;;;;;-144.99;100.00;52566.31;5056412;28;20611;-79
2021/01/11 09:12:29;;;;;;;21.07;16.93;;;;;;;-144.99;100.00;52554.09;5053191;28;20621;-79
2021/01/11 09:14:55;;;;;;;18.00;14.67;;;;;;;-144.99;100.00;52517.41;5033116;28;20619;-80
2021/01/11 09:17:25;;;;;;;22.37;17.83;;;;;;;-144.99;100.00;52586.69;5036095;28;20688;-79
2021/01/11 09:19:52;;;;;;;21.07;16.23;;;;;;;-144.99;100.00;52558.16;5035386;28;20624;-79
2021/01/11 09:22:29;;;;;;;24.20;16.73;;;;;;;-144.99;100.00;52574.47;5036819;28;20661;-78
2021/01/11 09:24:55;;;;;;;23.37;17.00;;;;;;;-144.99;100.00;52558.16;5030312;28;20625;-78
2021/01/11 09:27:23;;;;;;;20.97;16.97;;;;;;;-144.99;100.00;52590.78;5040124;28;20640;-79
2021/01/11 09:29:52;;;;;;;22.20;18.10;;;;;;;-144.99;100.00;52566.31;5035842;28;20616;-78
2021/01/11 09:32:22;;;;;;;25.30;18.13;;;;;;;-144.99;100.00;52603.00;5035510;28;21075;-78
2021/01/11 09:34:49;;;;;;;27.20;20.20;;;;;;;-144.99;100.00;52586.69;5033815;28;21185;-78
2021/01/11 09:37:15;;;;;;;28.30;19.67;;;;;;;-144.99;100.00;52578.53;5035868;28;20729;-79
2021/01/11 09:39:42;;;;;;;24.83;19.50;;;;;;;-144.99;100.00;52541.84;5034389;28;21190;-78
2021/01/11 09:42:09;;;;;;;26.07;19.90;;;;;;;-144.99;100.00;52586.69;5036012;28;20656;-76
2021/01/11 09:44:36;;;;;;;30.77;20.70;;;;;;;-144.99;100.00;52584.66;5034720;28;20620;-77
2021/01/11 09:47:05;;;;;;;27.17;19.20;;;;;;;-144.99;100.00;52545.94;5036801;28;20629;-78
2021/01/11 09:49:31;;;;;;;26.33;19.40;;;;;;;-144.99;100.00;52541.84;5032891;28;21189;-80
2021/01/11 09:51:57;;;;;;;27.07;20.27;;;;;;;-144.99;100.00;52582.63;5035896;28;20624;-78
2021/01/11 09:54:24;;;;;;;26.00;20.03;;;;;;;-144.99;100.00;52570.38;5036356;28;20635;-78
2021/01/11 09:56:52;;;;;;;31.70;19.80;;;;;;;-144.99;100.00;52562.25;5033447;28;21239;-76
2021/01/11 09:59:18;;;;;;;25.23;20.47;;;;;;;-144.99;100.00;52594.84;5033010;28;20648;-79
2021/01/11 10:01:46;;;;;;;31.00;21.93;;;;;;;-144.99;100.00;52545.94;5043310;28;20663;-78
2021/01/11 10:04:14;;;;;;;32.83;22.10;;;;;;;-144.99;100.00;52541.84;5052501;28;20726;-78
2021/01/11 10:06:42;;;;;;;26.20;19.03;;;;;;;-144.99;100.00;52541.84;5036489;28;20629;-79
2021/01/11 10:09:10;;;;;;;28.57;20.73;;;;;;;-144.99;100.00;52570.38;5044949;28;20651;-79
2021/01/11 10:11:37;;;;;;;26.53;22.07;;;;;;;-144.99;100.00;52598.94;5039587;28;20650;-79
2021/01/11 10:14:03;;;;;;;29.13;19.73;;;;;;;-144.99;100.00;52590.78;5046845;28;20619;-78
2021/01/11 10:16:30;;;;;;;31.73;19.50;;;;;;;-144.99;100.00;52525.56;5056444;28;20631;-80
2021/01/11 10:18:57;;;;;;;28.20;18.70;;;;;;;-144.99;100.00;52566.31;5052906;28;20660;-77
2021/01/11 10:21:23;;;;;;;23.67;16.17;;;;;;;-144.99;100.00;52562.25;5033096;28;20614;-78
2021/01/11 10:23:52;;;;;;;28.67;18.97;;;;;;;-144.99;100.00;52588.75;5035562;28;20620;-77
2021/01/11 10:26:20;;;;;;;29.23;20.40;;;;;;;-144.99;100.00;52596.88;5038734;28;20775;-79
2021/01/11 10:28:50;;;;;;;26.57;18.43;;;;;;;-144.99;100.00;52572.44;5037429;28;20740;-77
2021/01/11 10:31:17;;;;;;;29.20;22.10;;;;;;;-144.99;100.00;52586.69;5030575;28;20624;-77
2021/01/11 10:33:45;;;;;;;28.00;18.53;;;;;;;-144.99;100.00;52578.53;5050979;28;20643;-77
2021/01/11 10:36:13;;;;;;;27.83;18.80;;;;;;;-144.99;100.00;52554.09;5052108;28;20628;-77
2021/01/11 10:38:40;;;;;;;30.53;17.60;;;;;;;-144.99;100.00;52562.25;5053735;28;20644;-78
2021/01/11 10:41:06;;;;;;;25.40;17.30;;;;;;;-144.99;100.00;52586.69;5042174;28;20661;-77
2021/01/11 10:43:33;;;;;;;26.77;16.97;;;;;;;-144.99;100.00;52574.47;5038675;28;20645;-77
2021/01/11 10:45:59;;;;;;;29.37;20.00;;;;;;;-144.99;100.00;52572.44;5035440;28;20623;-75
2021/01/11 10:48:26;;;;;;;22.10;15.00;;;;;;;-144.99;100.00;52556.13;5035633;28;20696;-78
2021/01/11 10:50:52;;;;;;;30.80;20.43;;;;;;;-144.99;100.00;52578.53;5045165;28;20721;-80
2021/01/11 10:53:20;;;;;;;29.37;19.93;;;;;;;-144.99;100.00;52615.25;5054893;28;20670;-79
2021/01/11 10:55:46;;;;;;;31.47;21.57;;;;;;;-144.99;100.00;52566.31;5053011;28;20650;-80
2021/01/11 10:58:12;;;;;;;30.60;18.50;;;;;;;-144.99;100.00;52566.31;5052436;28;20700;-79
2021/01/11 11:00:38;;;;;;;24.90;17.23;;;;;;;-144.99;100.00;52578.53;5032552;28;20640;-79
2021/01/11 11:03:06;;;;;;;23.60;17.27;;;;;;;-144.99;100.00;52564.28;5031966;28;20737;-81